Air Navigation Services of Czech Republic
Airport: LKCV Updated:  04.06.2020 10:30:25  UTC
 METAR LKCV 04.06. 10:30 ...
METAR LKCV 041030Z 10005KT 030V150 9999 FEW040 SCT090 BKN200 23/10 Q0997 NOSIG RMK BLU BLU=
 TAF LKCV 04.06. 05:00 ...
TAF LKCV 040500Z 0406/0506 VRB02KT CAVOK      TEMPO 0408/0411 15006KT SCT035      TEMPO 0411/0422 18008KT 7000 SHRA BKN035TCU      PROB30 TEMPO 0412/0422 23012KT 5000 TSRA BKN030CB      BECMG 0422/0501 24006KT 7000 RA SCT020 BKN035=